createdAt,value
2019-06-27T00:02:15.894Z,17.30
2019-06-27T00:04:54.403Z,17.30
2019-06-27T00:07:33.067Z,17.20
2019-06-27T00:10:08.353Z,17.10
2019-06-27T00:12:45.773Z,17.10
2019-06-27T00:15:28.614Z,17.10
2019-06-27T00:18:07.982Z,17.10
2019-06-27T00:21:01.586Z,17.10
2019-06-27T00:23:37.358Z,17.10
2019-06-27T00:26:08.610Z,17.00
2019-06-27T00:28:39.919Z,17.00
2019-06-27T00:31:11.268Z,17.00
2019-06-27T00:33:42.529Z,16.90
2019-06-27T00:36:14.007Z,16.90
2019-06-27T00:38:45.279Z,16.90
2019-06-27T00:41:16.466Z,16.90
2019-06-27T00:43:47.770Z,16.90
2019-06-27T00:46:19.070Z,17.00
2019-06-27T00:48:50.261Z,17.00
2019-06-27T00:51:21.421Z,16.90
2019-06-27T00:53:52.720Z,16.80
2019-06-27T00:56:24.010Z,16.70
2019-06-27T00:58:55.311Z,16.70
2019-06-27T01:01:26.608Z,16.60
2019-06-27T01:03:57.869Z,16.50
2019-06-27T01:06:29.168Z,16.50
2019-06-27T01:09:02.750Z,16.50
2019-06-27T01:11:34.071Z,16.40
2019-06-27T01:14:07.360Z,16.40
2019-06-27T01:16:38.699Z,16.40
2019-06-27T01:19:10.076Z,16.30
2019-06-27T01:21:41.441Z,16.40
2019-06-27T01:24:12.750Z,16.40
2019-06-27T01:26:44.034Z,16.30
2019-06-27T01:29:15.290Z,16.40
2019-06-27T01:31:46.705Z,16.40
2019-06-27T01:34:18.012Z,16.40
2019-06-27T01:36:49.356Z,16.50
2019-06-27T01:39:20.594Z,16.50
2019-06-27T01:41:51.843Z,16.50
2019-06-27T01:44:44.493Z,16.50
2019-06-27T01:47:15.715Z,16.70
2019-06-27T01:49:47.011Z,16.70
2019-06-27T01:52:18.309Z,16.80
2019-06-27T01:54:49.645Z,16.80
2019-06-27T01:57:20.868Z,16.80
2019-06-27T01:59:52.186Z,16.70
2019-06-27T02:02:23.425Z,16.60
2019-06-27T02:04:54.728Z,16.60
2019-06-27T02:07:25.978Z,16.50
2019-06-27T02:09:57.241Z,16.50
2019-06-27T02:12:28.532Z,16.50
2019-06-27T02:14:59.977Z,16.50
2019-06-27T02:17:31.301Z,16.50
2019-06-27T02:20:02.598Z,16.40
2019-06-27T02:22:33.979Z,16.40
2019-06-27T02:25:06.116Z,16.40
2019-06-27T02:27:37.474Z,16.40
2019-06-27T02:30:09.354Z,16.40
2019-06-27T02:32:40.647Z,16.40
2019-06-27T02:35:12.313Z,16.40
2019-06-27T02:37:43.621Z,16.50
2019-06-27T02:40:15.057Z,16.50
2019-06-27T02:42:46.349Z,16.60
2019-06-27T02:45:17.827Z,16.50
2019-06-27T02:47:49.072Z,16.50
2019-06-27T02:50:20.415Z,16.50
2019-06-27T02:52:51.703Z,16.50
2019-06-27T02:55:22.943Z,16.50
2019-06-27T02:57:54.337Z,16.60
2019-06-27T03:00:25.900Z,16.60
2019-06-27T03:02:57.305Z,16.50
2019-06-27T03:05:28.541Z,16.50
2019-06-27T03:07:59.943Z,16.50
2019-06-27T03:10:31.247Z,16.40
2019-06-27T03:13:02.517Z,16.40
2019-06-27T03:15:33.805Z,16.40
2019-06-27T03:18:05.151Z,16.30
2019-06-27T03:20:36.475Z,16.30
2019-06-27T03:23:07.766Z,16.30
2019-06-27T03:25:38.980Z,16.30
2019-06-27T03:28:10.263Z,16.40
2019-06-27T03:30:41.559Z,16.40
2019-06-27T03:33:12.933Z,16.50
2019-06-27T03:35:44.090Z,16.60
2019-06-27T03:38:15.406Z,16.60
2019-06-27T03:40:46.584Z,16.50
2019-06-27T03:43:17.859Z,16.40
2019-06-27T03:45:49.209Z,16.40
2019-06-27T03:48:20.505Z,16.30
2019-06-27T03:50:55.905Z,16.20
2019-06-27T03:53:24.712Z,16.30
2019-06-27T03:55:56.106Z,16.30
2019-06-27T03:58:27.439Z,16.40
2019-06-27T04:00:58.768Z,16.40
2019-06-27T04:03:30.088Z,16.40
2019-06-27T04:06:01.462Z,16.40
2019-06-27T04:08:32.823Z,16.40
2019-06-27T04:11:04.218Z,16.30
2019-06-27T04:13:35.487Z,16.30
2019-06-27T04:16:06.732Z,16.30
2019-06-27T04:18:38.029Z,16.30
2019-06-27T04:21:09.310Z,16.30
2019-06-27T04:23:40.605Z,16.30
2019-06-27T04:26:11.929Z,16.30
2019-06-27T04:28:43.218Z,16.30
2019-06-27T04:31:14.490Z,16.40
2019-06-27T04:33:45.758Z,16.30
2019-06-27T04:36:17.040Z,16.40
2019-06-27T04:38:51.409Z,16.40
2019-06-27T04:41:22.728Z,16.50
2019-06-27T04:43:54.073Z,16.60
2019-06-27T04:46:25.370Z,16.60
2019-06-27T04:48:56.643Z,16.60
2019-06-27T04:51:28.203Z,16.70
2019-06-27T04:53:59.537Z,16.70
2019-06-27T04:56:30.789Z,16.70
2019-06-27T04:59:02.149Z,16.70
2019-06-27T05:01:33.398Z,16.70
2019-06-27T05:04:04.846Z,16.70
2019-06-27T05:06:36.273Z,16.80
2019-06-27T05:09:22.481Z,16.80
2019-06-27T05:11:53.777Z,16.80
2019-06-27T05:14:27.402Z,16.70
2019-06-27T05:16:58.704Z,16.70
2019-06-27T05:19:29.959Z,16.80
2019-06-27T05:22:01.346Z,16.90
2019-06-27T05:24:32.627Z,16.80
2019-06-27T05:27:04.096Z,16.90
2019-06-27T05:29:35.464Z,16.80
2019-06-27T05:32:06.863Z,16.90
2019-06-27T05:34:38.200Z,16.90
2019-06-27T05:37:09.333Z,16.90
2019-06-27T05:39:40.540Z,17.40
2019-06-27T05:42:11.958Z,17.70
2019-06-27T05:44:43.317Z,17.80
2019-06-27T05:47:14.898Z,17.70
2019-06-27T05:49:46.454Z,17.80
2019-06-27T05:52:18.071Z,18.00
2019-06-27T05:54:49.658Z,18.00
2019-06-27T05:57:21.337Z,18.50
2019-06-27T05:59:52.641Z,19.40
2019-06-27T06:02:23.940Z,19.80
2019-06-27T06:04:55.269Z,20.10
2019-06-27T06:07:26.511Z,20.90
2019-06-27T06:09:57.765Z,22.40
2019-06-27T06:12:29.130Z,23.80
2019-06-27T06:15:00.464Z,24.10
2019-06-27T06:17:31.802Z,23.60
2019-06-27T06:20:03.186Z,23.70
2019-06-27T06:22:34.524Z,23.90
2019-06-27T06:25:05.905Z,24.00
2019-06-27T06:27:37.331Z,24.00
2019-06-27T06:30:09.540Z,24.10
2019-06-27T06:32:40.842Z,24.00
2019-06-27T06:35:12.365Z,23.90
2019-06-27T06:37:43.680Z,24.30
2019-06-27T06:40:16.472Z,24.40
2019-06-27T06:42:49.601Z,24.50
2019-06-27T06:45:20.928Z,24.80
2019-06-27T06:47:52.374Z,24.70
2019-06-27T06:50:23.701Z,24.10
2019-06-27T06:52:55.585Z,23.80
2019-06-27T06:55:26.872Z,23.10
2019-06-27T06:57:58.115Z,23.30
2019-06-27T07:00:29.633Z,23.80
2019-06-27T07:03:00.836Z,24.40
2019-06-27T07:05:32.106Z,24.40
2019-06-27T07:08:03.353Z,24.10
2019-06-27T07:10:34.565Z,23.80
2019-06-27T07:13:05.900Z,24.40
2019-06-27T07:15:37.168Z,25.30
2019-06-27T07:18:08.495Z,25.80
2019-06-27T07:20:39.775Z,25.70
2019-06-27T07:23:11.073Z,25.80
2019-06-27T07:25:42.355Z,26.40
2019-06-27T07:28:13.603Z,26.50
2019-06-27T07:30:44.956Z,26.20
2019-06-27T07:33:16.179Z,26.20
2019-06-27T07:35:47.397Z,26.40
2019-06-27T07:38:18.768Z,26.10
2019-06-27T07:40:50.022Z,25.80
2019-06-27T07:43:21.181Z,26.00
2019-06-27T07:45:52.331Z,26.20
2019-06-27T07:48:23.981Z,26.00
2019-06-27T07:50:55.266Z,25.80
2019-06-27T07:53:26.541Z,25.80
2019-06-27T07:55:57.766Z,25.90
2019-06-27T07:58:28.967Z,25.50
2019-06-27T08:01:00.333Z,25.30
2019-06-27T08:03:31.670Z,25.80
2019-06-27T08:06:03.005Z,26.00
2019-06-27T08:08:34.328Z,26.10
2019-06-27T08:11:05.808Z,26.10
2019-06-27T08:13:37.019Z,26.20
2019-06-27T08:16:08.304Z,26.00
2019-06-27T08:18:39.725Z,25.70
2019-06-27T08:21:11.120Z,25.80
2019-06-27T08:23:42.593Z,26.10
2019-06-27T08:26:13.968Z,26.50
2019-06-27T08:28:45.309Z,26.90
2019-06-27T08:31:16.584Z,27.40
2019-06-27T08:33:47.880Z,27.20
2019-06-27T08:36:19.212Z,26.70
2019-06-27T08:38:50.518Z,26.80
2019-06-27T08:41:21.688Z,26.90
2019-06-27T08:43:53.286Z,26.80
2019-06-27T08:46:24.598Z,26.80
2019-06-27T08:48:59.018Z,27.30
2019-06-27T08:51:30.362Z,27.50
2019-06-27T08:54:01.661Z,27.00
2019-06-27T08:56:32.963Z,26.70
2019-06-27T08:59:04.364Z,26.60
2019-06-27T09:01:35.733Z,26.60
2019-06-27T09:04:06.939Z,26.60
2019-06-27T09:06:38.392Z,26.70
2019-06-27T09:09:09.682Z,26.00
2019-06-27T09:11:40.991Z,25.70
2019-06-27T09:14:12.407Z,26.10
2019-06-27T09:16:46.572Z,26.70
2019-06-27T09:19:16.489Z,27.10
2019-06-27T09:21:47.734Z,27.10
2019-06-27T09:24:19.041Z,26.90
2019-06-27T09:26:50.316Z,26.40
2019-06-27T09:29:21.643Z,26.30
2019-06-27T09:31:52.991Z,26.50
2019-06-27T09:34:24.325Z,26.90
2019-06-27T09:36:55.656Z,27.10
2019-06-27T09:39:27.180Z,26.60
2019-06-27T09:41:58.544Z,26.40
2019-06-27T09:44:29.944Z,26.00
2019-06-27T09:47:03.310Z,25.90
2019-06-27T09:49:34.599Z,26.00
2019-06-27T09:52:05.884Z,26.00
2019-06-27T09:54:37.219Z,26.10
2019-06-27T09:57:08.477Z,26.00
2019-06-27T09:59:39.991Z,25.90
2019-06-27T10:02:11.282Z,25.60
2019-06-27T10:04:42.542Z,24.90
2019-06-27T10:07:13.812Z,24.20
2019-06-27T10:09:45.226Z,23.70
2019-06-27T10:12:21.025Z,23.60
2019-06-27T10:14:55.282Z,23.50
2019-06-27T10:17:26.554Z,23.10
2019-06-27T10:19:58.086Z,22.80
2019-06-27T10:22:29.644Z,22.70
2019-06-27T10:25:00.833Z,22.70
2019-06-27T10:27:32.366Z,22.70
2019-06-27T10:30:06.998Z,22.60
2019-06-27T10:32:38.858Z,22.70
2019-06-27T10:35:11.138Z,23.00
2019-06-27T10:37:42.614Z,23.20
2019-06-27T10:40:15.448Z,23.20
2019-06-27T10:43:05.733Z,23.30
2019-06-27T10:45:38.113Z,23.40
2019-06-27T10:48:09.528Z,23.30
2019-06-27T10:50:40.966Z,23.30
2019-06-27T10:53:12.218Z,23.10
2019-06-27T10:55:46.286Z,23.20
2019-06-27T10:58:17.677Z,23.30
2019-06-27T11:00:48.986Z,23.40
2019-06-27T11:03:20.296Z,23.40
2019-06-27T11:05:51.679Z,23.50
2019-06-27T11:08:22.921Z,23.60
2019-06-27T11:10:54.237Z,23.60
2019-06-27T11:13:25.539Z,23.50
2019-06-27T11:15:56.852Z,23.40
2019-06-27T11:18:28.141Z,23.30
2019-06-27T11:20:59.353Z,23.20
2019-06-27T11:23:30.662Z,23.30
2019-06-27T11:26:01.933Z,23.50
2019-06-27T11:28:33.113Z,23.60
2019-06-27T11:31:05.929Z,23.70
2019-06-27T11:33:37.087Z,23.80
2019-06-27T11:36:08.819Z,23.80
2019-06-27T11:38:40.042Z,23.80
2019-06-27T11:41:11.496Z,23.60
2019-06-27T11:43:45.333Z,23.60
2019-06-27T11:46:16.543Z,23.80
2019-06-27T11:48:47.778Z,23.80
2019-06-27T11:51:18.995Z,23.80
2019-06-27T11:53:53.488Z,23.70
2019-06-27T11:56:24.684Z,23.70
2019-06-27T11:58:55.893Z,23.80
2019-06-27T12:01:27.141Z,24.00
2019-06-27T12:03:58.411Z,23.90
2019-06-27T12:06:29.757Z,24.00
2019-06-27T12:09:01.006Z,24.00
2019-06-27T12:11:32.338Z,24.00
2019-06-27T12:14:03.621Z,24.20
2019-06-27T12:16:34.874Z,24.00
2019-06-27T12:19:07.595Z,23.80
2019-06-27T12:21:41.172Z,23.80
2019-06-27T12:24:12.461Z,24.00
2019-06-27T12:26:43.655Z,24.10
2019-06-27T12:29:14.949Z,24.20
2019-06-27T12:31:46.272Z,24.30
2019-06-27T12:34:17.568Z,24.10
2019-06-27T12:36:48.746Z,24.20
2019-06-27T12:39:20.019Z,24.30
2019-06-27T12:41:51.284Z,24.40
2019-06-27T12:44:22.502Z,24.60
2019-06-27T12:46:53.768Z,24.40
2019-06-27T12:49:44.500Z,24.40
2019-06-27T12:51:59.539Z,24.40
2019-06-27T12:54:30.800Z,24.40
2019-06-27T12:57:02.096Z,24.40
2019-06-27T12:59:33.404Z,24.30
2019-06-27T13:02:04.625Z,24.30
2019-06-27T13:04:36.008Z,24.30
2019-06-27T13:07:07.439Z,24.30
2019-06-27T13:09:38.656Z,24.40
2019-06-27T13:12:10.012Z,24.50
2019-06-27T13:14:41.308Z,24.50
2019-06-27T13:17:12.671Z,24.60
2019-06-27T13:19:43.987Z,24.70
2019-06-27T13:22:15.286Z,24.70
2019-06-27T13:24:46.682Z,24.80
2019-06-27T13:27:18.008Z,25.00
2019-06-27T13:29:49.282Z,25.30
2019-06-27T13:32:20.557Z,25.50
2019-06-27T13:34:51.842Z,25.30
2019-06-27T13:37:23.119Z,25.20
2019-06-27T13:39:54.431Z,25.20
2019-06-27T13:42:25.657Z,25.20
2019-06-27T13:44:57.105Z,25.20
2019-06-27T13:47:28.363Z,25.20
2019-06-27T13:49:59.635Z,25.20
2019-06-27T13:52:30.820Z,25.20
2019-06-27T13:55:02.115Z,25.00
2019-06-27T13:57:33.489Z,24.90
2019-06-27T14:00:05.264Z,24.80
2019-06-27T14:02:36.457Z,24.90
2019-06-27T14:05:07.898Z,24.90
2019-06-27T14:07:39.280Z,24.90
2019-06-27T14:10:10.971Z,24.90
2019-06-27T14:12:44.724Z,25.00
2019-06-27T14:15:15.655Z,25.00
2019-06-27T14:17:46.949Z,25.20
2019-06-27T14:20:18.507Z,25.30
2019-06-27T14:22:49.791Z,25.50
2019-06-27T14:25:21.063Z,25.70
2019-06-27T14:27:52.273Z,25.70
2019-06-27T14:30:23.775Z,25.70
2019-06-27T14:32:55.057Z,25.80
2019-06-27T14:35:26.675Z,26.00
2019-06-27T14:37:57.929Z,26.30
2019-06-27T14:40:29.248Z,26.60
2019-06-27T14:43:03.222Z,27.00
2019-06-27T14:45:34.520Z,27.00
2019-06-27T14:48:05.777Z,27.10
2019-06-27T14:50:37.536Z,27.10
2019-06-27T14:53:08.705Z,27.00
2019-06-27T14:55:39.869Z,27.30
2019-06-27T14:58:11.141Z,27.20
2019-06-27T15:00:42.542Z,27.60
2019-06-27T15:03:13.890Z,28.10
2019-06-27T15:05:45.270Z,28.10
2019-06-27T15:08:16.454Z,28.90
2019-06-27T15:10:47.709Z,29.30
2019-06-27T15:13:19.102Z,29.10
2019-06-27T15:15:50.352Z,28.60
2019-06-27T15:18:21.730Z,28.90
2019-06-27T15:20:53.223Z,28.40
2019-06-27T15:23:24.491Z,28.30
2019-06-27T15:25:55.801Z,28.80
2019-06-27T15:28:27.028Z,29.70
2019-06-27T15:31:00.942Z,30.30
2019-06-27T15:33:41.297Z,31.00
2019-06-27T15:36:10.691Z,31.10
2019-06-27T15:38:41.934Z,31.10
2019-06-27T15:41:13.211Z,31.20
2019-06-27T15:43:44.545Z,31.70
2019-06-27T15:46:15.822Z,31.40
2019-06-27T15:48:47.158Z,30.90
2019-06-27T15:51:18.446Z,31.00
2019-06-27T15:53:49.779Z,31.80
2019-06-27T15:56:21.068Z,31.50
2019-06-27T15:58:52.363Z,31.60
2019-06-27T16:01:23.617Z,32.20
2019-06-27T16:03:54.912Z,31.80
2019-06-27T16:06:26.371Z,31.90
2019-06-27T16:08:57.669Z,31.60
2019-06-27T16:11:29.012Z,31.40
2019-06-27T16:14:00.270Z,31.30
2019-06-27T16:16:32.167Z,31.40
2019-06-27T16:19:08.256Z,31.80
2019-06-27T16:21:41.533Z,31.60
2019-06-27T16:28:05.743Z,32.00
2019-06-27T16:31:09.728Z,32.60
2019-06-27T16:33:41.047Z,33.00
2019-06-27T16:36:25.005Z,32.20
2019-06-27T16:38:45.413Z,31.90
2019-06-27T16:41:16.676Z,31.90
2019-06-27T16:43:47.939Z,31.90
2019-06-27T16:46:19.290Z,30.90
2019-06-27T16:48:50.685Z,30.50
2019-06-27T16:51:22.011Z,30.10
2019-06-27T16:53:53.279Z,29.30
2019-06-27T16:56:24.542Z,28.80
2019-06-27T16:58:58.261Z,28.00
2019-06-27T17:01:29.647Z,27.40
2019-06-27T17:04:02.233Z,27.00
2019-06-27T17:06:41.975Z,26.50
2019-06-27T17:09:08.149Z,26.10
2019-06-27T17:11:39.303Z,25.90
2019-06-27T17:14:10.549Z,25.70
2019-06-27T17:16:41.849Z,25.50
2019-06-27T17:19:13.211Z,25.40
2019-06-27T17:21:44.514Z,25.20
2019-06-27T17:24:37.087Z,25.10
2019-06-27T17:27:08.689Z,25.10
2019-06-27T17:29:40.056Z,25.10
2019-06-27T17:32:11.509Z,25.10
2019-06-27T17:34:42.940Z,25.20
2019-06-27T17:37:14.222Z,24.90
2019-06-27T17:39:45.511Z,24.80
2019-06-27T17:42:16.721Z,24.60
2019-06-27T17:44:48.019Z,24.50
2019-06-27T17:47:20.378Z,24.40
2019-06-27T17:49:51.792Z,24.30
2019-06-27T17:52:23.089Z,24.20
2019-06-27T17:54:56.841Z,24.10
2019-06-27T17:57:40.599Z,24.10
2019-06-27T18:00:12.243Z,23.90
2019-06-27T18:02:43.586Z,23.80
2019-06-27T18:05:18.147Z,23.60
2019-06-27T18:07:48.227Z,23.50
2019-06-27T18:10:20.688Z,23.40
2019-06-27T18:12:51.808Z,23.40
2019-06-27T18:15:23.415Z,23.20
2019-06-27T18:17:54.872Z,23.30
2019-06-27T18:20:26.067Z,23.20
2019-06-27T18:22:57.416Z,23.20
2019-06-27T18:25:28.831Z,23.20
2019-06-27T18:28:00.095Z,23.10
2019-06-27T18:30:31.545Z,23.00
2019-06-27T18:33:02.888Z,23.00
2019-06-27T18:35:35.394Z,22.80
2019-06-27T18:38:14.931Z,22.70
2019-06-27T18:40:46.364Z,22.70
2019-06-27T18:43:17.661Z,22.60
2019-06-27T18:45:48.937Z,22.50
2019-06-27T18:48:20.104Z,22.30
2019-06-27T18:50:51.550Z,22.20
2019-06-27T18:53:22.852Z,22.10
2019-06-27T18:55:55.801Z,22.00
2019-06-27T18:58:30.257Z,21.90
2019-06-27T19:01:03.286Z,21.80
2019-06-27T19:03:35.535Z,21.80
2019-06-27T19:06:06.889Z,21.70
2019-06-27T19:08:38.299Z,21.70
2019-06-27T19:11:09.551Z,21.60
2019-06-27T19:13:40.667Z,21.50
2019-06-27T19:16:11.873Z,21.40
2019-06-27T19:18:54.767Z,21.30
2019-06-27T19:21:56.681Z,21.10
2019-06-27T19:24:42.617Z,21.00
2019-06-27T19:27:13.880Z,20.90
2019-06-27T19:29:45.505Z,20.80
2019-06-27T19:32:16.738Z,20.70
2019-06-27T19:34:48.000Z,20.60
2019-06-27T19:37:19.156Z,20.50
2019-06-27T19:39:50.388Z,20.40
2019-06-27T19:42:21.691Z,20.30
2019-06-27T19:44:53.001Z,20.20
2019-06-27T19:47:24.229Z,20.10
2019-06-27T19:49:55.674Z,20.00
2019-06-27T19:52:26.903Z,20.00
2019-06-27T19:54:58.180Z,19.90
2019-06-27T19:57:29.422Z,19.90
2019-06-27T20:00:00.694Z,19.90
2019-06-27T20:02:36.079Z,19.80
2019-06-27T20:05:05.162Z,19.80
2019-06-27T20:07:36.566Z,19.70
2019-06-27T20:10:11.888Z,19.60
2019-06-27T20:12:42.648Z,19.60
2019-06-27T20:15:14.103Z,19.50
2019-06-27T20:17:45.351Z,19.50
2019-06-27T20:20:17.026Z,19.50
2019-06-27T20:22:48.400Z,19.40
2019-06-27T20:25:19.873Z,19.30
2019-06-27T20:27:51.185Z,19.30
2019-06-27T20:30:23.150Z,19.20
2019-06-27T20:32:54.705Z,19.10
2019-06-27T20:35:26.048Z,19.00
2019-06-27T20:37:58.406Z,18.90
2019-06-27T20:40:30.502Z,18.80
2019-06-27T20:43:03.429Z,18.80
2019-06-27T20:45:35.012Z,18.70
2019-06-27T20:48:06.318Z,18.70
2019-06-27T20:50:39.094Z,18.60
2019-06-27T20:53:10.417Z,18.50
2019-06-27T20:55:41.868Z,18.50
2019-06-27T20:58:16.608Z,18.40
2019-06-27T21:00:47.903Z,18.30
2019-06-27T21:03:29.033Z,18.30
2019-06-27T21:06:00.756Z,18.20
2019-06-27T21:08:32.215Z,18.10
2019-06-27T21:11:05.760Z,18.00
2019-06-27T21:13:41.616Z,18.00
2019-06-27T21:16:15.214Z,18.00
2019-06-27T21:18:48.359Z,17.90
2019-06-27T21:21:19.553Z,17.90
2019-06-27T21:23:50.772Z,17.80
2019-06-27T21:26:22.002Z,17.80
2019-06-27T21:28:53.450Z,17.80
2019-06-27T21:31:24.722Z,17.70
2019-06-27T21:33:56.437Z,17.60
2019-06-27T21:36:27.651Z,17.50
2019-06-27T21:39:07.704Z,17.50
2019-06-27T21:41:33.011Z,17.40
2019-06-27T21:44:04.306Z,17.40
2019-06-27T21:46:35.602Z,17.30
2019-06-27T21:49:06.861Z,17.20
2019-06-27T21:51:38.296Z,17.20
2019-06-27T21:54:09.618Z,17.10
2019-06-27T21:56:41.373Z,17.10
2019-06-27T21:59:12.652Z,17.00
2019-06-27T22:01:46.021Z,17.00
2019-06-27T22:04:19.598Z,17.00
2019-06-27T22:06:51.004Z,17.00
2019-06-27T22:09:25.096Z,16.90
2019-06-27T22:11:55.399Z,16.80
2019-06-27T22:14:26.601Z,16.70
2019-06-27T22:16:57.871Z,16.60
2019-06-27T22:19:29.167Z,16.60
2019-06-27T22:22:00.562Z,16.60
2019-06-27T22:24:32.102Z,16.50
2019-06-27T22:27:03.548Z,16.50
2019-06-27T22:29:34.902Z,16.40
2019-06-27T22:32:06.238Z,16.40
2019-06-27T22:34:37.600Z,16.30
2019-06-27T22:37:09.883Z,16.30
2019-06-27T22:39:58.633Z,16.20
2019-06-27T22:42:47.514Z,16.10
2019-06-27T22:45:36.778Z,16.10
2019-06-27T22:48:12.735Z,15.90
2019-06-27T22:50:59.709Z,15.90
2019-06-27T22:53:33.971Z,15.80
2019-06-27T22:56:05.531Z,15.80
2019-06-27T22:58:36.824Z,15.80
2019-06-27T23:01:09.281Z,15.70
2019-06-27T23:03:41.507Z,15.70
2019-06-27T23:06:13.928Z,15.60
2019-06-27T23:08:46.071Z,15.60
2019-06-27T23:11:17.433Z,15.50
2019-06-27T23:13:49.655Z,15.40
2019-06-27T23:16:21.851Z,15.40
2019-06-27T23:18:53.813Z,15.40
2019-06-27T23:21:26.288Z,15.40
2019-06-27T23:23:59.300Z,15.40
2019-06-27T23:26:31.736Z,15.30
2019-06-27T23:29:03.280Z,15.20
2019-06-27T23:31:34.741Z,15.20
2019-06-27T23:34:11.194Z,15.20
2019-06-27T23:36:53.042Z,15.20
2019-06-27T23:39:24.237Z,15.20
2019-06-27T23:41:55.787Z,15.20
2019-06-27T23:47:05.158Z,15.10
2019-06-27T23:49:36.440Z,15.00
2019-06-27T23:52:07.853Z,15.00
2019-06-27T23:54:39.127Z,15.00
2019-06-27T23:57:10.801Z,15.00
2019-06-27T23:59:42.042Z,14.90
